Blowing Sand Mountains, Nevada Weather observations

Data are for observation ending at time listed.
 Day   Time    Ave.   Ave.  Ave.  Vector   Max.   Stn.    Total    Solar   Ave.  
  of    of     Air    Rel.  Wind   Wind    Wind   Baro.  Precip.   Rad.    Soil  
Year   Day     Temp.  Hum.  Speed  Dir.    Gust   Pres.                    Temp. 
2015   (PST)    F      %     mph   deg.    mph     mb.     in.     W/m2     F   
------------------------------------------------------------------------------
 239   13:30   94.2    10    2.2   215      5.9    884.4     0.00     921     77.4
 239   13:40   92.5    10    4.0   271     10.0    884.2     0.00     906     77.5
 239   13:50   92.2    10    6.5   243     12.6    884.0     0.00     889     77.6
 239   14:00   92.9    10    4.7   224     11.9    883.9     0.00     869     77.7
 239   14:10   92.9    10    7.4   322     14.1    883.8     0.00     848     77.8
 239   14:20   92.6    10    5.1   283     10.2    883.6     0.00     818     77.9
 239   14:30   93.3    10    4.1   347      8.8    883.5     0.00     800     78.0
 239   14:40   92.8    10    5.0   286     10.8    883.3     0.00     746     78.1
 239   14:50   93.0    10    4.6     3      9.5    883.2     0.00     661     78.2
 239   15:00   93.8    10    4.3   324      7.7    883.0     0.00     717     78.3
 239   15:10   94.4     9    3.6   210      7.5    882.8     0.00     663     78.4
 239   15:20   94.9     9    3.9   143      8.6    882.7     0.00     657     78.5
 239   15:30   94.6     9    6.7   153     12.4    882.5     0.00     624     78.6
 239   15:40   94.6     9    7.5   251     13.5    882.5     0.00     608     78.7
 239   15:50   93.5    10    6.4   304     12.2    882.5     0.00     567     78.9
 239   16:00   93.5    10    7.8   281     14.8    882.4     0.00     526     78.9
 239   16:10   93.1    10    2.6   335      8.2    882.4     0.00     329     79.1
 239   16:20   93.1    10    5.6   272     11.2    882.3     0.00     376     79.2
 239   16:30   94.1     9    4.1   252      9.4    882.2     0.00     457     79.3
 239   16:40   93.7    10    7.7   331     15.1    882.2     0.00     401     79.4
 239   16:50   92.5    10    6.9   323     16.4    882.3     0.00     252     79.5
 239   17:00   92.9    10    1.7   242      4.5    882.2     0.00     287     79.6
 239   17:10   93.7    10    5.4   317     10.5    882.2     0.00     324     79.7
 239   17:20   93.2    10    6.0   298     13.0    882.1     0.00     291     79.8
 239   17:30   93.0    10    6.9   283     13.1    882.0     0.00     240     80.0
 239   17:40   92.2    10    6.5   285     12.9    882.0     0.00     119     80.1
 239   17:50   91.7    10    8.8   344     14.0    882.0     0.00     111     80.1
 239   18:00   91.1    11    8.7     2     12.1    881.9     0.00      72     80.2
 239   18:10   90.5    11    7.1     5     10.1    881.9     0.00      38     80.3
 239   18:20   89.9    11    7.8   356     11.3    882.0     0.00      22     80.4
 239   18:30   89.0    12    6.5     0      9.9    882.0     0.00       9     80.5
 239   18:40   88.2    12    5.6     2      7.5    882.1     0.00       2     80.6
 239   18:50   87.5    12    5.6     5      7.5    882.1     0.00       1     80.7
 239   19:00   86.8    12    4.5   353      6.7    882.2     0.00       0     80.8
 239   19:10   86.7    12    4.6   354      5.9    882.3     0.00       0     80.8
 239   19:20   85.5    13    3.8   358      5.0    882.4     0.00       0     80.9
 239   19:30   84.6    13    3.8   359      7.0    882.5     0.00       0     80.9
 239   19:40   85.4    13    7.3   334     11.5    882.6     0.00       0     81.0
 239   19:50   85.3    13    7.3   338     11.8    882.8     0.00       0     81.0
 239   20:00   84.8    14    5.1   324      8.6    882.9     0.00       0     81.1
 239   20:10   83.9    14    4.0   317      5.8    883.0     0.00       0     81.1
 239   20:20   83.5    14    2.2   317      9.6    883.2     0.00       0     81.1
 239   20:30   83.4    14    2.8   283      6.0    883.3     0.00       0     81.2
 239   20:40   83.4    14    7.8   318     12.9    883.5     0.00       0     81.2
 239   20:50   83.1    15    8.5   300     12.2    883.5     0.00       0     81.2
 239   21:00   81.9    16    3.8   262      8.4    883.6     0.00       0     81.2
 239   21:10   80.7    17    4.1   239      5.6    883.6     0.00       0     81.2
 239   21:20   79.5    18    3.9   207      5.3    883.5     0.00       0     81.2
 239   21:30   78.8    18    5.7   220      8.8    883.6     0.00       0     81.2
 239   21:40   81.5    16    4.3   281      8.5    883.8     0.00       0     81.2
 239   21:50   81.5    16    2.5   356      3.7    883.8     0.00       0     81.2
 239   22:00   79.5    18    3.0   352      6.8    883.8     0.00       0     81.2
 239   22:10   79.2    18    3.2   342      4.5    883.8     0.00       0     81.2
 239   22:20   78.0    19    2.0    45      4.1    883.9     0.00       0     81.2
 239   22:30   74.7    21    3.1   110      4.1    883.9     0.00       0     81.2
 239   22:40   75.7    21    3.1    13      7.3    883.9     0.00       0     81.2
 239   22:50   79.0    18    6.4     9     11.6    883.8     0.00       0     81.2
 239   23:00   79.5    18    8.5   359     12.1    883.8     0.00       0     81.1
 239   23:10   78.9    19    6.3    20      9.2    883.9     0.00       0     81.1
 239   23:20   78.6    19    5.1    32      8.7    884.0     0.00       0     81.1
 239   23:30   77.8    20    1.6   338      5.5    884.1     0.00       0     81.0
 239   23:40   77.4    20    3.2   351      7.4    884.2     0.00       0     81.0
 239   23:50   77.2    20    2.6   337      7.2    884.3     0.00       0     81.0
 240    0:00   74.2    22    2.2   159      5.3    884.3     0.00       0     81.0
 240    0:10   75.1    22    2.5    20      5.6    884.3     0.00       0     80.9
 240    0:20   74.4    22    2.3   100      4.1    884.3     0.00       0     80.9
 240    0:30   74.6    22    2.9    62      4.4    884.3     0.00       0     80.8
 240    0:40   74.1    22    3.0    50      4.5    884.3     0.00       0     80.8
 240    0:50   73.8    23    3.1    59      5.0    884.2     0.00       0     80.7
 240    1:00   73.3    23    2.1    64      5.6    884.2     0.00       0     80.7
 240    1:10   72.9    24    0.4    25      2.3    884.3     0.00       0     80.7
 240    1:20   73.3    24    0.9    37      2.4    884.3     0.00       0     80.6
 240    1:30   72.6    24    2.2   184      3.9    884.2     0.00       0     80.6
 240    1:40   69.3    26    2.8   180      3.4    884.2     0.00       0     80.5
 240    1:50   67.7    27    2.5   177      3.2    884.1     0.00       0     80.5
 240    2:00   67.1    28    2.2   145      3.7    884.2     0.00       0     80.4
 240    2:10   66.6    28    2.8   117      3.9    884.1     0.00       0     80.4
 240    2:20   66.2    28    2.6    95      3.5    884.0     0.00       0     80.3
 240    2:30   65.6    30    3.0    95      4.5    883.9     0.00       0     80.3
 240    2:40   65.7    30    3.5   108      4.5    883.9     0.00       0     80.2
 240    2:50   65.0    30    2.7   112      3.8    883.9     0.00       0     80.2
 240    3:00   64.1    31    2.4   131      3.1    883.8     0.00       0     80.1
 240    3:10   63.3    32    2.7   133      3.3    883.8     0.00       0     80.1
 240    3:20   61.8    32    3.2   156      3.8    883.9     0.00       0     80.0
 240    3:30   60.9    34    3.5   145      4.3    883.9     0.00       0     79.9
 240    3:40   61.5    33    3.1   116      4.2    883.9     0.00       0     79.9
 240    3:50   65.8    30    1.8    88      4.1    884.0     0.00       0     79.8
 240    4:00   63.2    32    0.9   194      2.6    884.0     0.00       0     79.8
 240    4:10   60.6    33    0.5   146      1.2    884.0     0.00       0     79.7
 240    4:20   59.0    35    1.0   185      2.1    884.0     0.00       0     79.6
 240    4:30   57.9    36    2.0   153      2.4    884.1     0.00       0     79.6
 240    4:40   57.4    37    1.9   123      2.7    884.1     0.00       0     79.5
 240    4:50   56.5    38    2.6   141      3.2    884.1     0.00       0     79.5
 240    5:00   56.4    38    2.4   133      3.4    884.1     0.00       0     79.4
 240    5:10   56.3    39    2.2   114      3.6    884.0     0.00       0     79.3
 240    5:20   56.5    39    2.2   136      3.7    884.0     0.00       2     79.3
 240    5:30   56.9    39    2.1   135      2.9    884.2     0.00       6     79.2
 240    5:40   57.9    38    2.2    77      3.1    884.3     0.00      17     79.1
 240    5:50   58.9    37    1.9    46      3.4    884.3     0.00      34     79.1
 240    6:00   59.7    36    0.3    44      1.0    884.3     0.00      62     79.0
 240    6:10   60.9    34    0.5   144      2.0    884.4     0.00      97     78.9
 240    6:20   61.6    34    0.6    98      2.0    884.3     0.00     137     78.7
 240    6:30   64.2    31    0.0     0      0.0    884.3     0.00     175     78.7
 240    6:40   67.4    28    0.1   211      1.5    884.4     0.00     210     78.6
 240    6:50   66.1    29    2.1   340      3.3    884.4     0.00     241     78.5
 240    7:00   65.2    30    1.2   286      2.6    884.5     0.00     264     78.4
 240    7:10   67.4    28    0.7    21      2.1    884.5     0.00     299     78.3
 240    7:20   68.4    28    2.7    20      3.7    884.5     0.00     336     78.3
 240    7:30   69.2    27    2.4    17      3.6    884.4     0.00     372     78.2
 240    7:40   71.2    26    1.7   338      2.6    884.4     0.00     397     78.2
 240    7:50   72.8    25    1.6   327      2.6    884.4     0.00     436     78.1
 240    8:00   74.6    23    1.5   294      2.3    884.4     0.00     489     78.0
 240    8:10   76.0    22    1.6   297      3.1    884.3     0.00     516     77.9
 240    8:20   76.6    21    1.7   288      2.6    884.2     0.00     546     77.8
 240    8:30   78.2    20    0.9   305      2.3    884.2     0.00     563     77.8
 240    8:40   79.6    19    1.1   296      3.2    884.2     0.00     588     77.7
 240    8:50   81.4    18    1.0   314      2.6    884.1     0.00     574     77.6
 240    9:00   82.5    17    1.3   316      3.3    884.1     0.00     682     77.6
 240    9:10   84.2    16    0.9     0      2.5    884.0     0.00     689     77.5
 240    9:20   84.7    16    1.1   306      3.6    884.0     0.00     711     77.5
 240    9:30   84.5    16    1.4   301      3.6    883.9     0.00     765     77.4
 240    9:40   85.1    15    2.0   334      4.6    883.7     0.00     802     77.4
 240    9:50   84.7    15    3.4   326      6.1    883.7     0.00     826     77.3
 240   10:00   84.9    15    2.9   350      5.0    883.6     0.00     831     77.3
 240   10:10   86.4    14    1.6    71      4.5    883.5     0.00     862     77.2
 240   10:20   88.3    13    1.3   188      3.9    883.4     0.00     789     77.2
 240   10:30   87.9    13    2.6   317      7.3    883.4     0.00     884     77.1
 240   10:40   86.6    14    3.2   317      7.7    883.2     0.00     837     77.1
 240   10:50   87.3    14    3.3    33      8.4    883.1     0.00     818     77.1
 240   11:00   87.6    13    4.6   335      9.0    882.9     0.00     955     77.1
 240   11:10   88.7    13    5.7    20     10.0    882.7     0.00     936     77.1
 240   11:20   88.5    13    5.8    16     13.3    882.5     0.00     914     77.1
 240   11:30   88.5    13    5.1   352      8.3    882.4     0.00     978     77.1
 240   11:40   89.7    12    3.3    40      7.5    882.2     0.00     927     77.1
 240   11:50   91.0    12    4.2   133      9.5    882.1     0.00     948     77.1
 240   12:00   90.9    12    3.3   148      8.0    881.9     0.00     850     77.1
 240   12:10   89.4    12    3.9   294      8.4    881.7     0.00     687     77.2
 240   12:20   90.2    12    4.1   355      6.9    881.5     0.00     955     77.2
 240   12:30   90.8    12    3.8   244      8.0    881.4     0.00     937     77.3
 240   12:40   92.0    11    4.5     8      9.6    881.3     0.00     599     77.4
 240   12:50   91.1    12    4.0   358      8.4    881.2     0.00     590     77.5
 240   13:00   90.8    12    3.1   319      7.4    881.2     0.00     502     77.5
 240   13:10   90.8    12    4.5   331      8.7    881.0     0.00     690     77.6
 240   13:20   92.6    11    1.5   352      3.9    880.9     0.00     862     77.6

Return to Blowing Sand Mountains graphs page.


Western Regional Climate Center,wrcc@dri.edu